createdAt,value
2022-10-29T00:00:39.836Z,88.8
2022-10-29T00:01:40.482Z,89.2
2022-10-29T00:02:41.126Z,89.7
2022-10-29T00:03:41.643Z,90.8
2022-10-29T00:04:42.237Z,90.8
2022-10-29T00:05:42.833Z,90.5
2022-10-29T00:06:43.504Z,90.6
2022-10-29T00:07:44.099Z,90.6
2022-10-29T00:08:44.691Z,90.7
2022-10-29T00:09:45.287Z,91.1
2022-10-29T00:10:45.884Z,90.7
2022-10-29T00:11:46.479Z,91.2
2022-10-29T00:12:47.076Z,91.3
2022-10-29T00:13:47.677Z,91.1
2022-10-29T00:14:48.264Z,91.5
2022-10-29T00:15:48.881Z,91.3
2022-10-29T00:16:49.486Z,91.4
2022-10-29T00:17:50.072Z,91.5
2022-10-29T00:18:50.667Z,91.3
2022-10-29T00:19:51.264Z,91.5
2022-10-29T00:20:51.860Z,91.2
2022-10-29T00:21:52.455Z,91.1
2022-10-29T00:22:53.249Z,91.2
2022-10-29T00:23:53.926Z,91.1
2022-10-29T00:24:54.521Z,91.1
2022-10-29T00:25:55.115Z,91.0
2022-10-29T00:26:55.719Z,91.1
2022-10-29T00:27:56.308Z,91.2
2022-10-29T00:28:56.897Z,91.3
2022-10-29T00:29:57.492Z,91.3
2022-10-29T00:30:58.083Z,91.1
2022-10-29T00:31:58.757Z,91.6
2022-10-29T00:32:59.342Z,91.4
2022-10-29T00:33:59.935Z,91.3
2022-10-29T00:35:00.530Z,91.3
2022-10-29T00:36:01.125Z,91.5
2022-10-29T00:37:01.717Z,91.3
2022-10-29T00:38:02.317Z,91.6
2022-10-29T00:39:02.925Z,91.4
2022-10-29T00:40:03.506Z,91.6
2022-10-29T00:41:04.118Z,91.9
2022-10-29T00:42:04.712Z,92.2
2022-10-29T00:43:05.306Z,91.9
2022-10-29T00:44:05.910Z,92.0
2022-10-29T00:45:06.518Z,92.0
2022-10-29T00:46:07.113Z,91.9
2022-10-29T00:47:07.707Z,91.9
2022-10-29T00:48:08.305Z,91.9
2022-10-29T00:49:08.895Z,91.9
2022-10-29T00:50:09.496Z,92.1
2022-10-29T00:51:10.087Z,91.9
2022-10-29T00:52:10.683Z,91.9
2022-10-29T00:53:11.278Z,91.9
2022-10-29T00:54:11.874Z,91.9
2022-10-29T00:55:12.489Z,92.2
2022-10-29T00:56:13.084Z,92.0
2022-10-29T00:57:13.678Z,91.8
2022-10-29T00:58:14.276Z,91.9
2022-10-29T00:59:14.872Z,91.9
2022-10-29T01:00:15.468Z,91.9
2022-10-29T01:01:16.127Z,92.5
2022-10-29T01:02:16.803Z,92.1
2022-10-29T01:03:17.474Z,92.2
2022-10-29T01:04:18.072Z,92.2
2022-10-29T01:05:18.666Z,92.3
2022-10-29T01:06:19.258Z,92.5
2022-10-29T01:07:19.855Z,92.7
2022-10-29T01:08:20.449Z,92.9
2022-10-29T01:09:21.045Z,93.1
2022-10-29T01:10:21.643Z,93.2
2022-10-29T01:11:22.238Z,93.4
2022-10-29T01:12:22.835Z,93.4
2022-10-29T01:13:23.428Z,93.8
2022-10-29T01:14:24.023Z,93.7
2022-10-29T01:15:24.615Z,93.5
2022-10-29T01:16:25.212Z,93.6
2022-10-29T01:17:25.807Z,93.7
2022-10-29T01:18:26.404Z,93.2
2022-10-29T01:19:27.058Z,93.3
2022-10-29T01:20:27.646Z,94.2
2022-10-29T01:21:28.241Z,94.2
2022-10-29T01:22:28.839Z,94.2
2022-10-29T01:23:29.434Z,94.2
2022-10-29T01:24:30.029Z,94.0
2022-10-29T01:25:30.620Z,94.0
2022-10-29T01:26:31.222Z,94.2
2022-10-29T01:27:31.813Z,94.3
2022-10-29T01:28:32.422Z,94.4
2022-10-29T01:29:33.005Z,94.3
2022-10-29T01:30:33.607Z,94.0
2022-10-29T01:31:34.196Z,94.3
2022-10-29T01:32:34.791Z,94.2
2022-10-29T01:33:35.387Z,93.9
2022-10-29T01:34:35.982Z,94.4
2022-10-29T01:35:36.574Z,94.0
2022-10-29T01:36:37.172Z,94.7
2022-10-29T01:37:37.765Z,94.8
2022-10-29T01:38:38.361Z,94.5
2022-10-29T01:39:38.954Z,94.7
2022-10-29T01:40:39.549Z,94.6
2022-10-29T01:41:40.146Z,94.8
2022-10-29T01:42:40.741Z,94.9
2022-10-29T01:43:41.338Z,95.0
2022-10-29T01:44:41.934Z,94.9
2022-10-29T01:45:42.530Z,94.8
2022-10-29T01:46:43.127Z,94.9
2022-10-29T01:47:43.720Z,94.7
2022-10-29T01:48:44.317Z,94.7
2022-10-29T01:49:44.909Z,95.1
2022-10-29T01:50:45.523Z,94.8
2022-10-29T01:51:46.123Z,94.9
2022-10-29T01:52:46.720Z,94.7
2022-10-29T01:53:47.315Z,94.8
2022-10-29T01:54:47.914Z,94.8
2022-10-29T01:55:48.506Z,95.1
2022-10-29T01:56:49.101Z,95.0
2022-10-29T01:57:49.696Z,95.5
2022-10-29T01:58:50.397Z,95.7
2022-10-29T01:59:56.007Z,95.4
2022-10-29T02:00:52.496Z,95.7
2022-10-29T02:01:53.114Z,95.6
2022-10-29T02:02:53.673Z,95.7
2022-10-29T02:03:54.263Z,95.6
2022-10-29T02:04:54.861Z,95.7
2022-10-29T02:05:55.454Z,95.6
2022-10-29T02:06:56.050Z,95.7
2022-10-29T02:07:56.646Z,95.5
2022-10-29T02:08:57.242Z,95.5
2022-10-29T02:09:57.836Z,95.7
2022-10-29T02:10:58.431Z,95.6
2022-10-29T02:11:59.026Z,95.6
2022-10-29T02:12:59.720Z,95.7
2022-10-29T02:14:00.270Z,95.7
2022-10-29T02:15:00.864Z,95.8
2022-10-29T02:16:01.460Z,95.9
2022-10-29T02:17:02.055Z,95.9
2022-10-29T02:18:02.655Z,96.1
2022-10-29T02:19:03.247Z,95.5
2022-10-29T02:20:03.839Z,96.1
2022-10-29T02:21:04.434Z,95.8
2022-10-29T02:22:05.027Z,96.2
2022-10-29T02:23:05.888Z,95.8
2022-10-29T02:24:06.479Z,96.3
2022-10-29T02:25:07.115Z,96.1
2022-10-29T02:26:07.676Z,96.3
2022-10-29T02:27:08.288Z,95.7
2022-10-29T02:28:08.906Z,96.0
2022-10-29T02:29:09.465Z,96.4
2022-10-29T02:30:10.066Z,96.4
2022-10-29T02:31:10.664Z,96.7
2022-10-29T02:32:11.249Z,96.6
2022-10-29T02:33:11.844Z,96.8
2022-10-29T02:34:12.439Z,96.8
2022-10-29T02:35:13.037Z,96.9
2022-10-29T02:36:13.634Z,96.9
2022-10-29T02:37:14.230Z,97.0
2022-10-29T02:38:14.827Z,97.2
2022-10-29T02:39:15.427Z,97.3
2022-10-29T02:40:16.023Z,97.2
2022-10-29T02:41:16.618Z,98.4
2022-10-29T02:42:17.212Z,98.4
2022-10-29T02:44:18.406Z,98.5
2022-10-29T02:45:19.002Z,98.1
2022-10-29T02:46:19.597Z,98.3
2022-10-29T02:47:20.199Z,98.0
2022-10-29T02:48:20.791Z,98.3
2022-10-29T02:49:21.389Z,98.7
2022-10-29T02:50:21.985Z,98.8
2022-10-29T02:51:22.601Z,99.3
2022-10-29T02:52:23.199Z,99.4
2022-10-29T02:53:23.798Z,99.4
2022-10-29T02:54:24.413Z,99.5
2022-10-29T02:55:25.008Z,99.0
2022-10-29T02:56:25.605Z,98.1
2022-10-29T02:57:26.200Z,98.1
2022-10-29T02:58:26.799Z,97.6
2022-10-29T02:59:27.414Z,97.3
2022-10-29T03:00:28.007Z,97.4
2022-10-29T03:01:28.903Z,97.2
2022-10-29T03:02:29.373Z,97.1
2022-10-29T03:03:29.964Z,97.1
2022-10-29T03:04:30.561Z,97.1
2022-10-29T03:05:31.155Z,97.3
2022-10-29T03:06:31.752Z,97.2
2022-10-29T03:07:32.348Z,97.3
2022-10-29T03:08:32.950Z,97.2
2022-10-29T03:09:33.540Z,97.5
2022-10-29T03:10:34.137Z,97.7
2022-10-29T03:11:34.737Z,97.5
2022-10-29T03:12:35.334Z,97.7
2022-10-29T03:14:36.550Z,98.5
2022-10-29T03:15:37.149Z,98.1
2022-10-29T03:16:37.742Z,98.4
2022-10-29T03:17:38.340Z,98.5
2022-10-29T03:18:38.933Z,97.9
2022-10-29T03:19:39.530Z,98.5
2022-10-29T03:20:40.126Z,98.4
2022-10-29T03:21:40.722Z,97.9
2022-10-29T03:22:41.320Z,98.5
2022-10-29T03:23:41.920Z,98.5
2022-10-29T03:24:42.518Z,98.5
2022-10-29T03:25:43.110Z,98.5
2022-10-29T03:26:43.710Z,99.0
2022-10-29T03:27:44.306Z,99.4
2022-10-29T03:29:45.506Z,99.4
2022-10-29T03:30:46.102Z,99.4
2022-10-29T03:31:46.699Z,99.9
2022-10-29T03:32:47.296Z,100.0
2022-10-29T03:33:47.897Z,100.0
2022-10-29T03:34:48.512Z,99.7
2022-10-29T03:35:49.160Z,100.0
2022-10-29T03:36:49.747Z,100.0
2022-10-29T03:37:50.349Z,100.0
2022-10-29T03:38:50.942Z,100.0
2022-10-29T03:39:51.540Z,100.0
2022-10-29T03:40:52.140Z,100.0
2022-10-29T03:41:52.752Z,100.0
2022-10-29T03:42:53.736Z,100.0
2022-10-29T03:44:55.111Z,100.0
2022-10-29T03:45:55.706Z,100.0
2022-10-29T03:46:56.305Z,100.0
2022-10-29T03:47:57.374Z,100.0
2022-10-29T03:48:58.247Z,100.0
2022-10-29T03:49:58.846Z,100.0
2022-10-29T03:50:59.443Z,100.0
2022-10-29T03:52:00.042Z,100.0
2022-10-29T03:53:00.640Z,100.0
2022-10-29T03:54:01.240Z,100.0
2022-10-29T03:55:01.834Z,100.0
2022-10-29T03:56:02.434Z,100.0
2022-10-29T03:57:03.054Z,100.0
2022-10-29T03:58:03.650Z,100.0
2022-10-29T03:59:04.317Z,100.0
2022-10-29T04:00:04.882Z,100.0
2022-10-29T04:01:05.478Z,100.0
2022-10-29T04:02:06.192Z,100.0
2022-10-29T04:03:06.910Z,100.0
2022-10-29T04:04:07.468Z,100.0
2022-10-29T04:05:08.067Z,100.0
2022-10-29T04:06:08.661Z,100.0
2022-10-29T04:07:09.261Z,100.0
2022-10-29T04:08:09.856Z,100.0
2022-10-29T04:09:10.453Z,100.0
2022-10-29T04:10:11.050Z,100.0
2022-10-29T04:11:11.647Z,100.0
2022-10-29T04:12:12.246Z,100.0
2022-10-29T04:13:12.844Z,100.0
2022-10-29T04:14:13.454Z,100.0
2022-10-29T04:15:14.039Z,100.0
2022-10-29T04:16:14.660Z,100.0
2022-10-29T04:17:15.261Z,100.0
2022-10-29T04:18:15.857Z,100.0
2022-10-29T04:19:16.450Z,100.0
2022-10-29T04:20:41.272Z,100.0
2022-10-29T04:28:45.397Z,100.0
2022-10-29T04:29:31.355Z,100.0
2022-10-29T04:30:31.950Z,100.0
2022-10-29T04:31:32.548Z,100.0
2022-10-29T04:32:33.165Z,100.0
2022-10-29T04:33:33.760Z,100.0
2022-10-29T04:34:34.360Z,100.0
2022-10-29T04:35:34.956Z,100.0
2022-10-29T04:36:35.552Z,100.0
2022-10-29T04:37:36.151Z,100.0
2022-10-29T04:38:36.746Z,100.0
2022-10-29T04:39:37.347Z,100.0
2022-10-29T04:40:37.962Z,100.0
2022-10-29T04:41:38.560Z,100.0
2022-10-29T04:42:39.159Z,100.0
2022-10-29T04:43:39.756Z,100.0
2022-10-29T04:44:40.373Z,100.0
2022-10-29T04:45:40.973Z,100.0
2022-10-29T04:46:41.569Z,100.0
2022-10-29T04:47:42.169Z,100.0
2022-10-29T04:48:42.809Z,100.0
2022-10-29T04:49:43.373Z,100.0
2022-10-29T04:50:43.969Z,100.0
2022-10-29T04:51:44.569Z,100.0
2022-10-29T04:52:45.169Z,100.0
2022-10-29T04:53:45.764Z,100.0
2022-10-29T04:54:46.358Z,100.0
2022-10-29T04:55:46.958Z,100.0
2022-10-29T04:56:47.551Z,100.0
2022-10-29T04:57:48.151Z,100.0
2022-10-29T04:58:48.745Z,100.0
2022-10-29T04:59:49.346Z,100.0
2022-10-29T05:00:50.050Z,100.0
2022-10-29T05:01:50.618Z,100.0
2022-10-29T05:02:51.230Z,100.0
2022-10-29T05:03:55.506Z,100.0
2022-10-29T05:04:53.417Z,100.0
2022-10-29T05:05:54.014Z,100.0
2022-10-29T05:06:54.613Z,100.0
2022-10-29T05:07:55.212Z,100.0
2022-10-29T05:08:55.809Z,100.0
2022-10-29T05:09:56.424Z,100.0
2022-10-29T05:10:57.019Z,100.0
2022-10-29T05:11:57.622Z,100.0
2022-10-29T05:12:58.410Z,100.0
2022-10-29T05:13:59.087Z,100.0
2022-10-29T05:14:59.685Z,100.0
2022-10-29T05:16:00.291Z,100.0
2022-10-29T05:17:00.922Z,100.0
2022-10-29T05:18:01.481Z,100.0
2022-10-29T05:19:02.076Z,100.0
2022-10-29T05:20:02.675Z,100.0
2022-10-29T05:21:03.269Z,100.0
2022-10-29T05:22:03.869Z,100.0
2022-10-29T05:23:04.463Z,100.0
2022-10-29T05:24:05.068Z,100.0
2022-10-29T05:25:05.660Z,100.0
2022-10-29T05:26:06.263Z,100.0
2022-10-29T05:27:06.878Z,100.0
2022-10-29T05:28:07.475Z,100.0
2022-10-29T05:29:08.072Z,100.0
2022-10-29T05:30:08.670Z,100.0
2022-10-29T05:31:09.267Z,100.0
2022-10-29T05:32:09.867Z,100.0
2022-10-29T05:33:10.475Z,100.0
2022-10-29T05:34:11.063Z,100.0
2022-10-29T05:35:11.660Z,100.0
2022-10-29T05:36:12.261Z,100.0
2022-10-29T05:37:12.857Z,100.0
2022-10-29T05:38:13.463Z,100.0
2022-10-29T05:39:14.057Z,100.0
2022-10-29T05:40:14.652Z,100.0
2022-10-29T05:41:15.253Z,100.0
2022-10-29T05:42:15.850Z,100.0
2022-10-29T05:43:16.458Z,100.0
2022-10-29T05:44:17.044Z,100.0
2022-10-29T05:45:17.644Z,100.0
2022-10-29T05:46:18.239Z,100.0
2022-10-29T05:47:18.838Z,100.0
2022-10-29T05:48:19.437Z,100.0
2022-10-29T05:49:20.047Z,100.0
2022-10-29T05:50:20.637Z,100.0
2022-10-29T05:51:21.234Z,100.0
2022-10-29T05:52:21.835Z,100.0
2022-10-29T05:53:22.432Z,100.0
2022-10-29T05:54:23.035Z,100.0
2022-10-29T05:55:23.629Z,100.0
2022-10-29T05:56:24.227Z,100.0
2022-10-29T05:57:24.825Z,100.0
2022-10-29T05:58:25.423Z,100.0
2022-10-29T05:59:31.018Z,100.0
2022-10-29T06:00:26.634Z,100.0
2022-10-29T06:01:27.274Z,100.0
2022-10-29T06:02:27.984Z,100.0
2022-10-29T06:03:28.598Z,100.0
2022-10-29T06:04:29.199Z,100.0
2022-10-29T06:05:29.798Z,100.0
2022-10-29T06:06:30.462Z,100.0
2022-10-29T06:07:31.009Z,100.0
2022-10-29T06:08:31.610Z,100.0
2022-10-29T06:09:32.210Z,100.0
2022-10-29T06:10:32.812Z,100.0
2022-10-29T06:11:33.414Z,100.0
2022-10-29T06:12:34.904Z,100.0
2022-10-29T06:13:35.605Z,100.0
2022-10-29T06:14:36.210Z,100.0
2022-10-29T06:15:36.808Z,100.0
2022-10-29T06:16:37.409Z,100.0
2022-10-29T06:17:38.009Z,100.0
2022-10-29T06:18:38.608Z,100.0
2022-10-29T06:20:40.698Z,100.0
2022-10-29T06:21:41.294Z,100.0
2022-10-29T06:22:41.895Z,100.0
2022-10-29T06:23:42.513Z,100.0
2022-10-29T06:24:43.112Z,100.0
2022-10-29T06:25:43.713Z,100.0
2022-10-29T06:26:44.316Z,100.0
2022-10-29T06:27:44.914Z,100.0
2022-10-29T06:28:45.518Z,100.0
2022-10-29T06:29:46.118Z,100.0
2022-10-29T06:30:46.721Z,100.0
2022-10-29T06:31:47.320Z,100.0
2022-10-29T06:32:47.920Z,100.0
2022-10-29T06:33:48.548Z,100.0
2022-10-29T06:34:49.145Z,100.0
2022-10-29T06:35:49.743Z,100.0
2022-10-29T06:36:50.346Z,100.0
2022-10-29T06:37:50.966Z,100.0
2022-10-29T06:38:51.567Z,100.0
2022-10-29T06:39:52.168Z,100.0
2022-10-29T06:40:52.767Z,100.0
2022-10-29T06:41:53.386Z,100.0
2022-10-29T06:42:53.989Z,100.0
2022-10-29T06:43:54.590Z,100.0
2022-10-29T06:44:55.195Z,100.0
2022-10-29T06:45:55.794Z,100.0
2022-10-29T06:46:56.397Z,100.0
2022-10-29T06:47:57.310Z,100.0
2022-10-29T06:48:58.110Z,100.0
2022-10-29T06:49:58.711Z,100.0
2022-10-29T06:50:59.333Z,100.0
2022-10-29T06:51:59.936Z,100.0
2022-10-29T06:53:00.701Z,100.0
2022-10-29T06:54:01.303Z,100.0
2022-10-29T06:55:01.907Z,100.0
2022-10-29T06:56:02.507Z,100.0
2022-10-29T06:57:03.129Z,100.0
2022-10-29T06:58:03.752Z,100.0
2022-10-29T06:59:04.354Z,100.0
2022-10-29T07:00:08.354Z,100.0
2022-10-29T07:01:06.552Z,100.0
2022-10-29T07:02:07.200Z,100.0
2022-10-29T07:03:07.750Z,100.0
2022-10-29T07:04:08.350Z,100.0
2022-10-29T07:05:08.954Z,100.0
2022-10-29T07:06:09.556Z,100.0
2022-10-29T07:07:10.162Z,100.0
2022-10-29T07:08:10.764Z,100.0
2022-10-29T07:09:11.370Z,100.0
2022-10-29T07:10:11.971Z,100.0
2022-10-29T07:11:12.574Z,100.0
2022-10-29T07:12:13.177Z,100.0
2022-10-29T07:13:13.780Z,100.0
2022-10-29T07:14:14.382Z,100.0
2022-10-29T07:15:14.986Z,100.0
2022-10-29T07:16:15.588Z,100.0
2022-10-29T07:17:16.192Z,100.0
2022-10-29T07:18:16.794Z,100.0
2022-10-29T07:19:17.396Z,100.0
2022-10-29T07:20:17.999Z,99.9
2022-10-29T07:21:18.603Z,100.0
2022-10-29T07:22:19.202Z,99.7
2022-10-29T07:23:19.908Z,99.5
2022-10-29T07:24:20.475Z,100.0
2022-10-29T07:25:21.099Z,100.0
2022-10-29T07:26:21.720Z,99.7
2022-10-29T07:27:22.380Z,100.0
2022-10-29T07:28:22.924Z,100.0
2022-10-29T07:29:23.529Z,100.0
2022-10-29T07:30:24.204Z,100.0
2022-10-29T07:31:24.868Z,100.0
2022-10-29T07:32:25.469Z,99.7
2022-10-29T07:33:26.073Z,100.0
2022-10-29T07:34:26.676Z,100.0
2022-10-29T07:35:27.277Z,100.0
2022-10-29T07:36:27.881Z,100.0
2022-10-29T07:37:28.500Z,100.0
2022-10-29T07:38:29.104Z,100.0
2022-10-29T07:39:29.707Z,100.0
2022-10-29T07:40:30.308Z,99.8
2022-10-29T07:41:30.911Z,100.0
2022-10-29T07:42:31.512Z,100.0
2022-10-29T07:43:32.121Z,100.0
2022-10-29T07:44:32.720Z,99.7
2022-10-29T07:45:33.322Z,100.0
2022-10-29T07:46:33.926Z,100.0
2022-10-29T07:47:34.528Z,100.0
2022-10-29T07:48:35.129Z,99.7
2022-10-29T07:49:35.730Z,99.7
2022-10-29T07:50:36.331Z,99.7
2022-10-29T07:51:36.936Z,99.6
2022-10-29T07:52:37.536Z,99.8
2022-10-29T07:53:38.139Z,100.0
2022-10-29T07:54:38.739Z,99.4
2022-10-29T07:55:39.342Z,99.8
2022-10-29T07:56:42.406Z,99.6
2022-10-29T07:57:41.543Z,100.0
2022-10-29T07:58:42.142Z,98.8
2022-10-29T07:59:42.746Z,99.3
2022-10-29T08:00:43.387Z,99.0
2022-10-29T08:01:44.055Z,98.4
2022-10-29T08:02:44.636Z,98.6
2022-10-29T08:03:45.237Z,98.3
2022-10-29T08:04:45.840Z,98.4
2022-10-29T08:05:46.442Z,98.0
2022-10-29T08:06:47.046Z,98.2
2022-10-29T08:07:47.648Z,98.1
2022-10-29T08:08:48.249Z,98.0
2022-10-29T08:09:48.851Z,97.4
2022-10-29T08:10:49.472Z,97.0
2022-10-29T08:11:50.081Z,97.2
2022-10-29T08:12:50.699Z,97.4
2022-10-29T08:13:51.302Z,97.3
2022-10-29T08:14:51.903Z,97.4
2022-10-29T08:15:52.523Z,97.1
2022-10-29T08:16:53.107Z,97.3
2022-10-29T08:17:53.710Z,96.6
2022-10-29T08:18:54.311Z,96.9
2022-10-29T08:19:54.913Z,96.9
2022-10-29T08:20:55.514Z,96.9
2022-10-29T08:21:56.118Z,97.0
2022-10-29T08:22:56.872Z,97.3
2022-10-29T08:23:57.572Z,97.2
2022-10-29T08:24:58.171Z,97.4
2022-10-29T08:25:58.775Z,97.3
2022-10-29T08:26:59.379Z,97.2
2022-10-29T08:27:59.983Z,97.0
2022-10-29T08:29:00.581Z,96.9
2022-10-29T08:30:01.189Z,96.7
2022-10-29T08:31:01.788Z,96.8
2022-10-29T08:32:02.391Z,97.0
2022-10-29T08:33:02.991Z,97.2
2022-10-29T08:34:07.225Z,96.6
2022-10-29T08:35:05.188Z,96.7
2022-10-29T08:36:05.795Z,96.8
2022-10-29T08:37:06.392Z,96.8
2022-10-29T08:38:07.012Z,96.3
2022-10-29T08:39:07.598Z,96.4
2022-10-29T08:40:08.200Z,96.2
2022-10-29T08:41:08.804Z,96.0
2022-10-29T08:42:09.405Z,96.0
2022-10-29T08:43:10.006Z,95.5
2022-10-29T08:44:10.666Z,96.0
2022-10-29T08:45:11.222Z,95.8
2022-10-29T08:46:11.827Z,95.8
2022-10-29T08:47:12.427Z,95.6
2022-10-29T08:48:13.027Z,95.5
2022-10-29T08:49:13.630Z,95.2
2022-10-29T08:50:14.234Z,95.1
2022-10-29T08:51:14.840Z,95.1
2022-10-29T08:52:15.438Z,95.0
2022-10-29T08:53:24.546Z,93.9
2022-10-29T08:54:30.300Z,95.1
2022-10-29T08:55:19.229Z,94.8
2022-10-29T08:56:19.831Z,94.2
2022-10-29T08:57:20.434Z,94.4
2022-10-29T08:58:21.036Z,95.0
2022-10-29T08:59:21.644Z,94.1
2022-10-29T09:00:22.258Z,94.3
2022-10-29T09:01:22.929Z,94.5
2022-10-29T09:02:23.613Z,94.6
2022-10-29T09:03:24.167Z,94.1
2022-10-29T09:04:24.771Z,94.1
2022-10-29T09:05:25.371Z,94.2
2022-10-29T09:06:25.986Z,94.0
2022-10-29T09:07:26.578Z,93.9
2022-10-29T09:08:27.180Z,94.0
2022-10-29T09:09:27.783Z,94.8
2022-10-29T09:10:28.384Z,94.9
2022-10-29T09:11:28.989Z,94.6
2022-10-29T09:12:29.591Z,94.6
2022-10-29T09:13:30.197Z,94.9
2022-10-29T09:14:30.797Z,94.7
2022-10-29T09:15:31.400Z,95.3
2022-10-29T09:16:32.052Z,95.5
2022-10-29T09:17:32.606Z,95.8
2022-10-29T09:18:33.207Z,95.3
2022-10-29T09:19:33.808Z,95.9
2022-10-29T09:20:34.410Z,95.7
2022-10-29T09:21:35.016Z,95.5
2022-10-29T09:22:35.613Z,95.7
2022-10-29T09:23:36.216Z,95.7
2022-10-29T09:24:36.817Z,95.5
2022-10-29T09:25:37.419Z,95.5
2022-10-29T09:26:38.022Z,95.4
2022-10-29T09:27:38.624Z,95.1
2022-10-29T09:28:39.228Z,95.4
2022-10-29T09:29:39.828Z,94.8
2022-10-29T09:30:40.430Z,94.8
2022-10-29T09:31:41.030Z,94.6
2022-10-29T09:32:41.660Z,94.2
2022-10-29T09:33:42.254Z,93.7
2022-10-29T09:34:42.868Z,93.4
2022-10-29T09:35:43.475Z,93.0
2022-10-29T09:36:44.075Z,92.6
2022-10-29T09:37:44.676Z,93.1
2022-10-29T09:38:45.278Z,93.2
2022-10-29T09:39:45.880Z,93.2
2022-10-29T09:40:46.492Z,92.7
2022-10-29T09:41:47.112Z,91.9
2022-10-29T09:42:47.716Z,91.4
2022-10-29T09:43:48.316Z,91.3
2022-10-29T09:44:48.919Z,90.5
2022-10-29T09:45:49.521Z,91.0
2022-10-29T09:46:50.122Z,90.6
2022-10-29T09:47:50.724Z,90.6
2022-10-29T09:48:51.325Z,89.0
2022-10-29T09:49:51.930Z,90.5
2022-10-29T09:50:52.543Z,90.8
2022-10-29T09:51:53.134Z,90.6
2022-10-29T09:52:54.011Z,90.5
2022-10-29T09:53:54.800Z,90.5
2022-10-29T09:54:55.405Z,89.4
2022-10-29T09:55:56.003Z,90.7
2022-10-29T09:56:56.608Z,90.0
2022-10-29T09:57:57.208Z,89.3
2022-10-29T09:58:57.824Z,89.5
2022-10-29T09:59:58.414Z,89.3
2022-10-29T10:00:59.014Z,89.1
2022-10-29T10:01:59.673Z,90.0
2022-10-29T10:03:00.890Z,89.2
2022-10-29T10:05:02.438Z,90.2
2022-10-29T10:06:03.042Z,88.7
2022-10-29T10:07:03.637Z,87.1
2022-10-29T10:08:04.240Z,87.6
2022-10-29T10:09:04.844Z,87.0
2022-10-29T10:10:05.442Z,86.7
2022-10-29T10:11:06.044Z,86.1
2022-10-29T10:12:06.647Z,87.1
2022-10-29T10:13:07.249Z,87.4
2022-10-29T10:14:07.850Z,86.4
2022-10-29T10:15:08.452Z,87.0
2022-10-29T10:16:09.058Z,87.2
2022-10-29T10:17:09.659Z,88.1
2022-10-29T10:18:10.282Z,88.0
2022-10-29T10:19:10.885Z,86.8
2022-10-29T10:20:11.504Z,87.7
2022-10-29T10:21:12.106Z,88.4
2022-10-29T10:22:15.475Z,88.2
2022-10-29T10:23:14.304Z,86.9
2022-10-29T10:24:14.910Z,87.3
2022-10-29T10:25:15.559Z,87.5
2022-10-29T10:26:16.117Z,87.0
2022-10-29T10:27:16.719Z,86.4
2022-10-29T10:28:17.322Z,85.7
2022-10-29T10:29:17.931Z,85.9
2022-10-29T10:30:18.527Z,85.8
2022-10-29T10:31:19.126Z,85.9
2022-10-29T10:32:19.729Z,85.2
2022-10-29T10:33:20.364Z,85.1
2022-10-29T10:34:20.940Z,84.8
2022-10-29T10:35:21.534Z,84.0
2022-10-29T10:36:22.139Z,84.2
2022-10-29T10:37:22.737Z,83.4
2022-10-29T10:38:23.342Z,84.3
2022-10-29T10:39:23.942Z,83.8
2022-10-29T10:40:24.704Z,83.2
2022-10-29T10:41:25.322Z,83.2
2022-10-29T10:42:25.943Z,83.8
2022-10-29T10:43:26.543Z,85.1
2022-10-29T10:44:27.146Z,85.2
2022-10-29T10:45:27.769Z,84.8
2022-10-29T10:46:28.352Z,84.2
2022-10-29T10:47:28.954Z,84.4
2022-10-29T10:48:33.553Z,83.3
2022-10-29T10:49:31.149Z,83.7
2022-10-29T10:50:31.753Z,84.6
2022-10-29T10:51:32.366Z,82.5
2022-10-29T10:52:32.955Z,81.4
2022-10-29T10:53:33.560Z,81.6
2022-10-29T10:54:34.192Z,83.1
2022-10-29T10:55:34.767Z,81.5
2022-10-29T10:56:35.372Z,81.2
2022-10-29T10:57:35.973Z,81.5
2022-10-29T10:58:36.577Z,81.6
2022-10-29T10:59:37.198Z,82.2
2022-10-29T11:00:37.845Z,82.9
2022-10-29T11:01:38.537Z,83.9
2022-10-29T11:02:39.196Z,83.1
2022-10-29T11:03:39.779Z,82.7
2022-10-29T11:04:40.385Z,83.1
2022-10-29T11:05:40.985Z,84.1
2022-10-29T11:06:41.589Z,82.8
2022-10-29T11:07:42.191Z,82.9
2022-10-29T11:08:42.793Z,82.4
2022-10-29T11:09:43.396Z,82.6
2022-10-29T11:10:43.998Z,83.2
2022-10-29T11:11:44.603Z,83.0
2022-10-29T11:12:45.221Z,82.3
2022-10-29T11:13:45.825Z,82.6
2022-10-29T11:14:46.427Z,82.2
2022-10-29T11:15:47.030Z,81.5
2022-10-29T11:16:47.629Z,82.0
2022-10-29T11:17:53.708Z,82.0
2022-10-29T11:18:49.828Z,82.5
2022-10-29T11:19:50.448Z,81.2
2022-10-29T11:20:51.052Z,81.4
2022-10-29T11:21:51.653Z,81.1
2022-10-29T11:22:52.257Z,80.5
2022-10-29T11:23:52.858Z,80.1
2022-10-29T11:24:53.463Z,79.6
2022-10-29T11:25:54.062Z,78.4
2022-10-29T11:26:54.666Z,79.6
2022-10-29T11:27:55.267Z,80.3
2022-10-29T11:28:55.879Z,81.0
2022-10-29T11:29:56.479Z,79.8
2022-10-29T11:30:57.084Z,79.4
2022-10-29T11:31:57.686Z,79.4
2022-10-29T11:32:58.808Z,79.5
2022-10-29T11:33:59.635Z,79.8
2022-10-29T11:35:00.257Z,78.5
2022-10-29T11:36:01.844Z,77.8
2022-10-29T11:37:02.461Z,78.8
2022-10-29T11:38:03.088Z,79.2
2022-10-29T11:39:03.687Z,78.4
2022-10-29T11:40:04.287Z,80.1
2022-10-29T11:41:05.008Z,80.2
2022-10-29T11:42:05.512Z,78.6
2022-10-29T11:43:09.155Z,79.3
2022-10-29T11:44:07.149Z,79.8
2022-10-29T11:45:07.755Z,79.5
2022-10-29T11:46:08.356Z,81.1
2022-10-29T11:47:08.969Z,80.4
2022-10-29T11:48:09.589Z,81.0
2022-10-29T11:49:10.166Z,80.6
2022-10-29T11:50:10.771Z,81.1
2022-10-29T11:51:11.372Z,81.0
2022-10-29T11:52:11.972Z,79.9
2022-10-29T11:53:12.576Z,80.5
2022-10-29T11:54:13.178Z,79.9
2022-10-29T11:55:13.782Z,82.2
2022-10-29T11:56:14.383Z,82.1
2022-10-29T11:57:14.990Z,81.2
2022-10-29T11:58:15.587Z,81.3
2022-10-29T11:59:16.190Z,80.6
2022-10-29T12:00:16.796Z,81.2
2022-10-29T12:01:17.469Z,81.5
2022-10-29T12:02:18.095Z,82.1
2022-10-29T12:03:18.797Z,81.4
2022-10-29T12:04:22.994Z,81.4
2022-10-29T12:05:20.966Z,81.0
2022-10-29T12:06:21.566Z,80.4
2022-10-29T12:07:22.169Z,79.9
2022-10-29T12:08:22.773Z,79.3
2022-10-29T12:09:23.372Z,79.8
2022-10-29T12:10:23.976Z,79.2
2022-10-29T12:11:24.576Z,78.7
2022-10-29T12:12:25.179Z,79.9
2022-10-29T12:13:25.781Z,79.5
2022-10-29T12:14:26.383Z,80.3
2022-10-29T12:15:26.993Z,79.8
2022-10-29T12:16:27.610Z,80.5
2022-10-29T12:17:28.301Z,80.2
2022-10-29T12:18:28.856Z,80.1
2022-10-29T12:19:29.461Z,79.9
2022-10-29T12:20:30.066Z,79.9
2022-10-29T12:21:30.696Z,79.5
2022-10-29T12:22:31.294Z,80.0
2022-10-29T12:23:31.903Z,80.2
2022-10-29T12:24:32.502Z,79.2
2022-10-29T12:25:33.108Z,79.7
2022-10-29T12:26:33.709Z,78.5
2022-10-29T12:27:34.313Z,77.0
2022-10-29T12:28:34.917Z,78.7
2022-10-29T12:29:35.518Z,78.4
2022-10-29T12:30:36.121Z,79.3
2022-10-29T12:31:36.793Z,78.2
2022-10-29T12:32:37.326Z,78.2
2022-10-29T12:33:37.929Z,76.8
2022-10-29T12:34:38.529Z,77.0
2022-10-29T12:35:39.132Z,77.7
2022-10-29T12:36:39.731Z,77.7
2022-10-29T12:37:40.336Z,77.2
2022-10-29T12:38:40.967Z,78.5
2022-10-29T12:39:41.544Z,79.6
2022-10-29T12:40:42.146Z,79.3
2022-10-29T12:41:42.748Z,80.9
2022-10-29T12:42:43.350Z,81.0
2022-10-29T12:43:43.955Z,81.0
2022-10-29T12:44:45.439Z,81.7
2022-10-29T12:46:14.409Z,82.2
2022-10-29T12:46:47.669Z,82.6
2022-10-29T12:47:48.266Z,82.9
2022-10-29T12:48:49.245Z,83.0
2022-10-29T12:49:49.847Z,83.1
2022-10-29T12:50:50.449Z,83.2
2022-10-29T12:51:51.089Z,82.7
2022-10-29T12:52:51.675Z,82.4
2022-10-29T12:53:52.274Z,82.8
2022-10-29T12:54:52.875Z,82.9
2022-10-29T12:55:53.477Z,82.3
2022-10-29T12:56:54.078Z,82.1
2022-10-29T12:57:54.682Z,81.2
2022-10-29T12:58:55.281Z,81.7
2022-10-29T12:59:55.884Z,81.8
2022-10-29T13:00:56.526Z,82.4
2022-10-29T13:02:10.972Z,80.9
2022-10-29T13:02:58.984Z,80.0
2022-10-29T13:03:59.795Z,79.5
2022-10-29T13:05:00.397Z,79.3
2022-10-29T13:06:00.997Z,78.6
2022-10-29T13:07:01.601Z,80.0
2022-10-29T13:08:02.203Z,78.8
2022-10-29T13:09:02.805Z,80.1
2022-10-29T13:10:03.404Z,79.0
2022-10-29T13:11:04.006Z,80.0
2022-10-29T13:12:04.607Z,78.4
2022-10-29T13:13:05.218Z,79.3
2022-10-29T13:14:05.831Z,79.6
2022-10-29T13:15:06.433Z,78.6
2022-10-29T13:16:07.043Z,77.4
2022-10-29T13:17:07.637Z,78.8
2022-10-29T13:18:08.236Z,78.1
2022-10-29T13:19:08.837Z,78.5
2022-10-29T13:20:09.438Z,77.9
2022-10-29T13:21:10.042Z,78.2
2022-10-29T13:22:10.644Z,78.2
2022-10-29T13:23:11.248Z,76.5
2022-10-29T13:24:11.852Z,76.9
2022-10-29T13:25:12.450Z,77.8
2022-10-29T13:26:13.058Z,77.9
2022-10-29T13:27:13.657Z,75.6
2022-10-29T13:28:14.259Z,77.4
2022-10-29T13:29:14.859Z,78.4
2022-10-29T13:30:15.459Z,78.9
2022-10-29T13:31:16.079Z,76.3
2022-10-29T13:32:16.678Z,75.0